sensor_id;sensor_type;location;lat;lon;timestamp;pressure;altitude;pressure_sealevel;temperature;humidity
35507;BME280;36461;52.018;21.036;2022-07-29T00:01:27;100848.06;;;12.08;80.38
35507;BME280;36461;52.018;21.036;2022-07-29T00:03:53;100848.58;;;12.06;80.42
35507;BME280;36461;52.018;21.036;2022-07-29T00:06:19;100846.50;;;12.03;80.43
35507;BME280;36461;52.018;21.036;2022-07-29T00:08:46;100849.16;;;12.01;80.38
35507;BME280;36461;52.018;21.036;2022-07-29T00:11:13;100854.52;;;11.97;80.43
35507;BME280;36461;52.018;21.036;2022-07-29T00:13:40;100859.77;;;11.95;80.67
35507;BME280;36461;52.018;21.036;2022-07-29T00:16:06;100854.18;;;11.92;80.90
35507;BME280;36461;52.018;21.036;2022-07-29T00:18:32;100860.69;;;11.92;81.19
35507;BME280;36461;52.018;21.036;2022-07-29T00:20:59;100857.67;;;11.91;81.31
35507;BME280;36461;52.018;21.036;2022-07-29T00:23:25;100856.02;;;11.89;81.38
35507;BME280;36461;52.018;21.036;2022-07-29T00:25:51;100858.25;;;11.86;81.51
35507;BME280;36461;52.018;21.036;2022-07-29T00:28:18;100862.16;;;11.86;81.62
35507;BME280;36461;52.018;21.036;2022-07-29T00:30:44;100862.64;;;11.84;81.57
35507;BME280;36461;52.018;21.036;2022-07-29T00:33:10;100869.70;;;11.81;81.66
35507;BME280;36461;52.018;21.036;2022-07-29T00:35:37;100868.88;;;11.79;81.79
35507;BME280;36461;52.018;21.036;2022-07-29T00:38:14;100864.19;;;11.77;81.72
35507;BME280;36461;52.018;21.036;2022-07-29T00:40:40;100860.81;;;11.73;81.85
35507;BME280;36461;52.018;21.036;2022-07-29T00:43:07;100859.92;;;11.74;82.16
35507;BME280;36461;52.018;21.036;2022-07-29T00:45:34;100853.48;;;11.72;82.19
35507;BME280;36461;52.018;21.036;2022-07-29T00:48:02;100852.24;;;11.69;82.21
35507;BME280;36461;52.018;21.036;2022-07-29T00:50:31;100843.66;;;11.67;82.32
35507;BME280;36461;52.018;21.036;2022-07-29T00:52:59;100847.55;;;11.67;82.48
35507;BME280;36461;52.018;21.036;2022-07-29T00:55:29;100841.98;;;11.65;82.47
35507;BME280;36461;52.018;21.036;2022-07-29T00:57:56;100843.77;;;11.63;82.48
35507;BME280;36461;52.018;21.036;2022-07-29T01:00:25;100851.31;;;11.57;82.48
35507;BME280;36461;52.018;21.036;2022-07-29T01:02:52;100851.31;;;11.57;82.48
35507;BME280;36461;52.018;21.036;2022-07-29T01:05:21;100844.39;;;11.56;82.75
35507;BME280;36461;52.018;21.036;2022-07-29T01:07:51;100854.43;;;11.53;82.83
35507;BME280;36461;52.018;21.036;2022-07-29T01:10:20;100844.59;;;11.50;82.94
35507;BME280;36461;52.018;21.036;2022-07-29T01:12:49;100850.27;;;11.48;83.15
35507;BME280;36461;52.018;21.036;2022-07-29T01:15:16;100852.03;;;11.47;83.37
35507;BME280;36461;52.018;21.036;2022-07-29T01:17:52;100858.12;;;11.46;83.34
35507;BME280;36461;52.018;21.036;2022-07-29T01:26:44;100856.09;;;11.41;83.72
35507;BME280;36461;52.018;21.036;2022-07-29T01:29:26;100853.08;;;11.40;83.92
35507;BME280;36461;52.018;21.036;2022-07-29T01:32:13;100854.42;;;11.38;84.06
35507;BME280;36461;52.018;21.036;2022-07-29T01:34:58;100856.64;;;11.37;84.14
35507;BME280;36461;52.018;21.036;2022-07-29T01:40:10;100860.66;;;11.33;84.10
35507;BME280;36461;52.018;21.036;2022-07-29T01:42:45;100858.94;;;11.32;84.28
35507;BME280;36461;52.018;21.036;2022-07-29T01:45:40;100858.56;;;11.31;84.20
35507;BME280;36461;52.018;21.036;2022-07-29T01:48:24;100861.68;;;11.27;84.28
35507;BME280;36461;52.018;21.036;2022-07-29T01:53:46;100860.13;;;11.20;84.54
35507;BME280;36461;52.018;21.036;2022-07-29T01:56:31;100860.63;;;11.18;84.61
35507;BME280;36461;52.018;21.036;2022-07-29T01:59:00;100864.63;;;11.15;84.70
35507;BME280;36461;52.018;21.036;2022-07-29T02:01:29;100862.08;;;11.12;84.81
35507;BME280;36461;52.018;21.036;2022-07-29T02:03:58;100861.29;;;11.10;84.85
35507;BME280;36461;52.018;21.036;2022-07-29T02:06:27;100866.11;;;11.07;84.91
35507;BME280;36461;52.018;21.036;2022-07-29T02:08:56;100863.11;;;11.06;85.04
35507;BME280;36461;52.018;21.036;2022-07-29T02:11:24;100866.16;;;11.05;85.14
35507;BME280;36461;52.018;21.036;2022-07-29T02:13:54;100870.98;;;11.03;85.13
35507;BME280;36461;52.018;21.036;2022-07-29T02:16:22;100865.38;;;11.02;85.11
35507;BME280;36461;52.018;21.036;2022-07-29T02:18:52;100862.41;;;10.99;85.12
35507;BME280;36461;52.018;21.036;2022-07-29T02:21:23;100864.22;;;10.97;85.04
35507;BME280;36461;52.018;21.036;2022-07-29T02:23:52;100859.08;;;10.94;84.94
35507;BME280;36461;52.018;21.036;2022-07-29T02:26:20;100854.34;;;10.94;85.10
35507;BME280;36461;52.018;21.036;2022-07-29T02:28:51;100854.81;;;10.91;85.11
35507;BME280;36461;52.018;21.036;2022-07-29T02:31:23;100852.67;;;10.91;85.16
35507;BME280;36461;52.018;21.036;2022-07-29T02:33:52;100860.05;;;10.90;85.22
35507;BME280;36461;52.018;21.036;2022-07-29T02:36:21;100860.55;;;10.88;85.27
35507;BME280;36461;52.018;21.036;2022-07-29T02:38:49;100860.10;;;10.88;85.39
35507;BME280;36461;52.018;21.036;2022-07-29T02:41:33;100858.84;;;10.87;85.52
35507;BME280;36461;52.018;21.036;2022-07-29T02:44:12;100859.31;;;10.85;85.49
35507;BME280;36461;52.018;21.036;2022-07-29T02:46:59;100866.72;;;10.84;85.52
35507;BME280;36461;52.018;21.036;2022-07-29T02:57:58;100868.21;;;10.76;85.81
35507;BME280;36461;52.018;21.036;2022-07-29T03:00:28;100867.33;;;10.77;85.83
35507;BME280;36461;52.018;21.036;2022-07-29T03:02:58;100865.20;;;10.75;85.67
35507;BME280;36461;52.018;21.036;2022-07-29T03:05:27;100869.14;;;10.73;85.74
35507;BME280;36461;52.018;21.036;2022-07-29T03:07:57;100863.91;;;10.75;85.91
35507;BME280;36461;52.018;21.036;2022-07-29T03:10:29;100870.30;;;10.78;86.07
35507;BME280;36461;52.018;21.036;2022-07-29T03:12:57;100863.76;;;10.81;86.18
35507;BME280;36461;52.018;21.036;2022-07-29T03:15:24;100865.42;;;10.84;86.18
35507;BME280;36461;52.018;21.036;2022-07-29T03:17:52;100859.77;;;10.84;86.15
35507;BME280;36461;52.018;21.036;2022-07-29T03:20:19;100864.13;;;10.84;86.10
35507;BME280;36461;52.018;21.036;2022-07-29T03:22:46;100864.97;;;10.84;85.96
35507;BME280;36461;52.018;21.036;2022-07-29T03:25:15;100861.53;;;10.84;86.09
35507;BME280;36461;52.018;21.036;2022-07-29T03:27:44;100858.84;;;10.87;86.09
35507;BME280;36461;52.018;21.036;2022-07-29T03:30:12;100861.03;;;10.86;85.87
35507;BME280;36461;52.018;21.036;2022-07-29T03:32:40;100864.50;;;10.86;85.88
35507;BME280;36461;52.018;21.036;2022-07-29T03:35:07;100867.48;;;10.87;85.93
35507;BME280;36461;52.018;21.036;2022-07-29T03:37:36;100868.72;;;10.90;85.91
35507;BME280;36461;52.018;21.036;2022-07-29T03:40:05;100867.84;;;10.90;86.08
35507;BME280;36461;52.018;21.036;2022-07-29T03:42:36;100866.92;;;10.93;86.35
35507;BME280;36461;52.018;21.036;2022-07-29T03:45:10;100869.88;;;10.95;86.37
35507;BME280;36461;52.018;21.036;2022-07-29T03:47:50;100874.15;;;10.98;86.59
35507;BME280;36461;52.018;21.036;2022-07-29T03:50:11;100877.02;;;11.03;86.81
35507;BME280;36461;52.018;21.036;2022-07-29T03:52:40;100882.13;;;11.08;86.89
35507;BME280;36461;52.018;21.036;2022-07-29T03:55:09;100880.27;;;11.12;86.78
35507;BME280;36461;52.018;21.036;2022-07-29T03:57:36;100872.42;;;11.15;86.91
35507;BME280;36461;52.018;21.036;2022-07-29T04:00:04;100873.16;;;11.18;86.83
35507;BME280;36461;52.018;21.036;2022-07-29T04:02:32;100866.61;;;11.21;86.94
35507;BME280;36461;52.018;21.036;2022-07-29T04:04:59;100874.67;;;11.27;87.07
35507;BME280;36461;52.018;21.036;2022-07-29T04:07:25;100871.62;;;11.28;87.06
35507;BME280;36461;52.018;21.036;2022-07-29T04:09:52;100871.51;;;11.32;87.18
35507;BME280;36461;52.018;21.036;2022-07-29T04:12:18;100873.55;;;11.36;87.27
35507;BME280;36461;52.018;21.036;2022-07-29T04:14:46;100872.58;;;11.40;87.32
35507;BME280;36461;52.018;21.036;2022-07-29T04:17:13;100875.95;;;11.44;87.43
35507;BME280;36461;52.018;21.036;2022-07-29T04:19:39;100878.44;;;11.48;87.48
35507;BME280;36461;52.018;21.036;2022-07-29T04:22:05;100876.95;;;11.54;87.70
35507;BME280;36461;52.018;21.036;2022-07-29T04:24:32;100876.78;;;11.61;87.75
35507;BME280;36461;52.018;21.036;2022-07-29T04:26:58;100881.41;;;11.66;87.85
35507;BME280;36461;52.018;21.036;2022-07-29T04:29:24;100875.96;;;11.73;88.04
35507;BME280;36461;52.018;21.036;2022-07-29T04:31:51;100877.05;;;11.81;88.13
35507;BME280;36461;52.018;21.036;2022-07-29T04:34:17;100878.59;;;11.88;88.19
35507;BME280;36461;52.018;21.036;2022-07-29T04:36:43;100882.20;;;11.99;88.37
35507;BME280;36461;52.018;21.036;2022-07-29T04:39:10;100870.97;;;12.25;89.26
35507;BME280;36461;52.018;21.036;2022-07-29T04:41:36;100874.67;;;12.99;90.84
35507;BME280;36461;52.018;21.036;2022-07-29T04:44:03;100875.33;;;13.29;88.86
35507;BME280;36461;52.018;21.036;2022-07-29T04:46:31;100877.30;;;13.36;87.58
35507;BME280;36461;52.018;21.036;2022-07-29T04:48:58;100884.23;;;13.23;86.56
35507;BME280;36461;52.018;21.036;2022-07-29T04:51:24;100884.23;;;13.23;86.56
35507;BME280;36461;52.018;21.036;2022-07-29T04:53:50;100880.92;;;13.18;86.57
35507;BME280;36461;52.018;21.036;2022-07-29T04:56:16;100887.02;;;13.19;86.97
35507;BME280;36461;52.018;21.036;2022-07-29T04:58:43;100890.80;;;13.22;86.72
35507;BME280;36461;52.018;21.036;2022-07-29T05:01:09;100889.33;;;13.26;86.89
35507;BME280;36461;52.018;21.036;2022-07-29T05:03:36;100886.45;;;13.34;87.25
35507;BME280;36461;52.018;21.036;2022-07-29T05:06:02;100886.22;;;13.42;87.64
35507;BME280;36461;52.018;21.036;2022-07-29T05:08:29;100896.73;;;13.52;87.59
35507;BME280;36461;52.018;21.036;2022-07-29T05:10:55;100898.47;;;13.64;88.03
35507;BME280;36461;52.018;21.036;2022-07-29T05:13:21;100892.52;;;13.72;87.78
35507;BME280;36461;52.018;21.036;2022-07-29T05:15:48;100896.70;;;13.76;87.60
35507;BME280;36461;52.018;21.036;2022-07-29T05:18:15;100895.34;;;13.78;87.44
35507;BME280;36461;52.018;21.036;2022-07-29T05:20:41;100895.19;;;13.82;87.68
35507;BME280;36461;52.018;21.036;2022-07-29T05:23:08;100894.98;;;13.99;88.51
35507;BME280;36461;52.018;21.036;2022-07-29T05:25:34;100893.20;;;14.11;88.31
35507;BME280;36461;52.018;21.036;2022-07-29T05:28:01;100899.51;;;14.17;88.23
35507;BME280;36461;52.018;21.036;2022-07-29T05:30:27;100901.02;;;14.23;88.13
35507;BME280;36461;52.018;21.036;2022-07-29T05:32:54;100902.88;;;14.31;88.11
35507;BME280;36461;52.018;21.036;2022-07-29T05:35:20;100896.45;;;14.40;88.23
35507;BME280;36461;52.018;21.036;2022-07-29T05:37:47;100889.41;;;14.52;88.24
35507;BME280;36461;52.018;21.036;2022-07-29T05:40:13;100885.81;;;14.67;88.39
35507;BME280;36461;52.018;21.036;2022-07-29T05:42:40;100882.18;;;14.81;88.38
35507;BME280;36461;52.018;21.036;2022-07-29T05:45:07;100879.48;;;14.93;88.41
35507;BME280;36461;52.018;21.036;2022-07-29T05:47:34;100875.97;;;15.04;88.31
35507;BME280;36461;52.018;21.036;2022-07-29T05:50:01;100876.48;;;15.13;88.12
35507;BME280;36461;52.018;21.036;2022-07-29T05:52:27;100878.77;;;15.20;88.07
35507;BME280;36461;52.018;21.036;2022-07-29T05:54:54;100875.10;;;15.24;87.85
35507;BME280;36461;52.018;21.036;2022-07-29T05:57:22;100873.97;;;15.30;87.72
35507;BME280;36461;52.018;21.036;2022-07-29T05:59:50;100874.23;;;15.34;87.63
35507;BME280;36461;52.018;21.036;2022-07-29T06:02:17;100875.72;;;15.40;87.61
35507;BME280;36461;52.018;21.036;2022-07-29T06:04:44;100869.75;;;15.47;87.58
35507;BME280;36461;52.018;21.036;2022-07-29T06:07:11;100872.55;;;15.52;87.58
35507;BME280;36461;52.018;21.036;2022-07-29T06:09:37;100872.67;;;15.59;87.48
35507;BME280;36461;52.018;21.036;2022-07-29T06:12:04;100872.84;;;15.65;87.36
35507;BME280;36461;52.018;21.036;2022-07-29T06:14:31;100867.66;;;15.74;87.13
35507;BME280;36461;52.018;21.036;2022-07-29T06:16:58;100869.94;;;15.82;87.07
35507;BME280;36461;52.018;21.036;2022-07-29T06:19:24;100866.13;;;15.89;86.71
35507;BME280;36461;52.018;21.036;2022-07-29T06:21:51;100871.25;;;16.01;86.74
35507;BME280;36461;52.018;21.036;2022-07-29T06:24:17;100871.27;;;16.09;86.77
35507;BME280;36461;52.018;21.036;2022-07-29T06:26:43;100874.59;;;16.13;86.55
35507;BME280;36461;52.018;21.036;2022-07-29T06:29:10;100865.44;;;16.22;86.41
35507;BME280;36461;52.018;21.036;2022-07-29T06:31:37;100869.39;;;16.31;86.16
35507;BME280;36461;52.018;21.036;2022-07-29T06:34:03;100866.69;;;16.41;85.87
35507;BME280;36461;52.018;21.036;2022-07-29T06:36:30;100858.85;;;16.50;85.79
35507;BME280;36461;52.018;21.036;2022-07-29T06:39:04;100864.11;;;16.58;84.97
35507;BME280;36461;52.018;21.036;2022-07-29T06:41:33;100870.97;;;16.70;84.57
35507;BME280;36461;52.018;21.036;2022-07-29T06:44:00;100873.12;;;16.79;84.45
35507;BME280;36461;52.018;21.036;2022-07-29T06:46:27;100872.14;;;16.90;84.42
35507;BME280;36461;52.018;21.036;2022-07-29T06:48:53;100866.81;;;17.01;84.00
35507;BME280;36461;52.018;21.036;2022-07-29T06:51:20;100861.09;;;17.10;83.84
35507;BME280;36461;52.018;21.036;2022-07-29T06:53:47;100868.88;;;17.20;83.43
35507;BME280;36461;52.018;21.036;2022-07-29T06:56:13;100871.38;;;17.31;83.18
35507;BME280;36461;52.018;21.036;2022-07-29T06:58:39;100868.58;;;17.42;82.79
35507;BME280;36461;52.018;21.036;2022-07-29T07:01:06;100869.70;;;17.54;82.53
35507;BME280;36461;52.018;21.036;2022-07-29T07:03:34;100872.59;;;17.66;82.35
35507;BME280;36461;52.018;21.036;2022-07-29T07:06:01;100876.80;;;17.77;81.92
35507;BME280;36461;52.018;21.036;2022-07-29T07:08:27;100866.63;;;17.87;81.12
35507;BME280;36461;52.018;21.036;2022-07-29T07:10:54;100859.68;;;17.94;80.62
35507;BME280;36461;52.018;21.036;2022-07-29T07:13:20;100870.42;;;18.06;80.46
35507;BME280;36461;52.018;21.036;2022-07-29T07:15:46;100873.22;;;18.19;80.46
35507;BME280;36461;52.018;21.036;2022-07-29T07:18:15;100870.17;;;18.26;79.51
35507;BME280;36461;52.018;21.036;2022-07-29T07:20:42;100870.09;;;18.35;78.96
35507;BME280;36461;52.018;21.036;2022-07-29T07:23:08;100871.36;;;18.44;78.77
35507;BME280;36461;52.018;21.036;2022-07-29T07:25:35;100864.61;;;18.54;78.57
35507;BME280;36461;52.018;21.036;2022-07-29T07:28:02;100871.72;;;18.68;78.29
35507;BME280;36461;52.018;21.036;2022-07-29T07:30:29;100866.56;;;18.74;77.95
35507;BME280;36461;52.018;21.036;2022-07-29T07:32:55;100859.89;;;18.83;76.98
35507;BME280;36461;52.018;21.036;2022-07-29T07:35:22;100864.64;;;18.92;77.06
35507;BME280;36461;52.018;21.036;2022-07-29T07:37:48;100867.94;;;19.03;76.41
35507;BME280;36461;52.018;21.036;2022-07-29T07:40:15;100865.72;;;19.11;76.78
35507;BME280;36461;52.018;21.036;2022-07-29T07:42:41;100864.41;;;19.18;75.50
35507;BME280;36461;52.018;21.036;2022-07-29T07:45:08;100870.23;;;19.23;74.99
35507;BME280;36461;52.018;21.036;2022-07-29T07:47:36;100874.75;;;19.28;74.04
35507;BME280;36461;52.018;21.036;2022-07-29T07:50:06;100868.71;;;19.34;73.39
35507;BME280;36461;52.018;21.036;2022-07-29T07:52:34;100872.30;;;19.40;72.94
35507;BME280;36461;52.018;21.036;2022-07-29T07:55:03;100868.33;;;19.47;72.43
35507;BME280;36461;52.018;21.036;2022-07-29T07:57:30;100860.27;;;19.50;72.09
35507;BME280;36461;52.018;21.036;2022-07-29T07:59:56;100864.30;;;19.56;72.45
35507;BME280;36461;52.018;21.036;2022-07-29T08:02:23;100862.95;;;19.63;71.28
35507;BME280;36461;52.018;21.036;2022-07-29T08:04:49;100867.65;;;19.72;71.25
35507;BME280;36461;52.018;21.036;2022-07-29T08:07:15;100871.13;;;19.80;70.84
35507;BME280;36461;52.018;21.036;2022-07-29T08:09:42;100869.63;;;19.90;70.42
35507;BME280;36461;52.018;21.036;2022-07-29T08:12:08;100867.45;;;19.97;70.19
35507;BME280;36461;52.018;21.036;2022-07-29T08:14:35;100867.80;;;20.05;70.29
35507;BME280;36461;52.018;21.036;2022-07-29T08:17:01;100864.92;;;20.16;70.44
35507;BME280;36461;52.018;21.036;2022-07-29T08:19:28;100878.93;;;20.23;70.26
35507;BME280;36461;52.018;21.036;2022-07-29T08:21:54;100871.78;;;20.25;68.72
35507;BME280;36461;52.018;21.036;2022-07-29T08:24:21;100870.73;;;20.28;68.55
35507;BME280;36461;52.018;21.036;2022-07-29T08:27:06;100864.70;;;20.33;68.03
35507;BME280;36461;52.018;21.036;2022-07-29T08:29:33;100855.70;;;20.43;67.48
35507;BME280;36461;52.018;21.036;2022-07-29T08:31:59;100857.18;;;20.47;67.35
35507;BME280;36461;52.018;21.036;2022-07-29T08:34:26;100858.34;;;20.56;67.40
35507;BME280;36461;52.018;21.036;2022-07-29T08:36:52;100853.98;;;20.62;67.17
35507;BME280;36461;52.018;21.036;2022-07-29T08:39:18;100861.13;;;20.67;67.07
35507;BME280;36461;52.018;21.036;2022-07-29T08:41:45;100858.67;;;20.71;65.63
35507;BME280;36461;52.018;21.036;2022-07-29T08:44:14;100863.17;;;20.76;65.74
35507;BME280;36461;52.018;21.036;2022-07-29T08:46:42;100861.23;;;20.86;65.80
35507;BME280;36461;52.018;21.036;2022-07-29T08:49:10;100853.79;;;20.98;65.85
35507;BME280;36461;52.018;21.036;2022-07-29T08:51:39;100852.67;;;21.08;65.53
35507;BME280;36461;52.018;21.036;2022-07-29T08:54:09;100853.95;;;21.15;64.59
35507;BME280;36461;52.018;21.036;2022-07-29T08:56:36;100858.11;;;21.25;64.32
35507;BME280;36461;52.018;21.036;2022-07-29T08:59:05;100856.61;;;21.34;63.82
35507;BME280;36461;52.018;21.036;2022-07-29T09:01:33;100854.12;;;21.38;62.38
35507;BME280;36461;52.018;21.036;2022-07-29T09:04:01;100854.75;;;21.41;62.48
35507;BME280;36461;52.018;21.036;2022-07-29T09:06:32;100855.80;;;21.52;62.53
35507;BME280;36461;52.018;21.036;2022-07-29T09:09:00;100857.11;;;21.65;62.16
35507;BME280;36461;52.018;21.036;2022-07-29T09:11:28;100855.39;;;21.76;61.60
35507;BME280;36461;52.018;21.036;2022-07-29T09:13:55;100852.22;;;21.90;61.36
35507;BME280;36461;52.018;21.036;2022-07-29T09:16:21;100843.56;;;22.06;61.18
35507;BME280;36461;52.018;21.036;2022-07-29T09:18:48;100838.80;;;22.17;60.30
35507;BME280;36461;52.018;21.036;2022-07-29T09:21:16;100846.39;;;22.27;59.87
35507;BME280;36461;52.018;21.036;2022-07-29T09:24:12;100837.94;;;22.41;58.78
35507;BME280;36461;52.018;21.036;2022-07-29T09:26:41;100839.52;;;22.49;58.93
35507;BME280;36461;52.018;21.036;2022-07-29T09:29:17;100844.63;;;22.63;58.46
35507;BME280;36461;52.018;21.036;2022-07-29T09:31:48;100840.83;;;22.90;58.20
35507;BME280;36461;52.018;21.036;2022-07-29T09:34:27;100837.02;;;23.17;57.57
35507;BME280;36461;52.018;21.036;2022-07-29T09:36:56;100821.38;;;23.37;57.43
35507;BME280;36461;52.018;21.036;2022-07-29T09:39:28;100823.17;;;23.48;56.05
35507;BME280;36461;52.018;21.036;2022-07-29T09:41:59;100834.45;;;23.67;57.20
35507;BME280;36461;52.018;21.036;2022-07-29T09:44:45;100835.50;;;23.92;55.86
35507;BME280;36461;52.018;21.036;2022-07-29T09:47:18;100835.44;;;24.04;55.31
35507;BME280;36461;52.018;21.036;2022-07-29T09:49:58;100822.98;;;24.21;55.44
35507;BME280;36461;52.018;21.036;2022-07-29T09:52:26;100825.86;;;24.45;55.42
35507;BME280;36461;52.018;21.036;2022-07-29T09:55:08;100822.19;;;24.63;54.16
35507;BME280;36461;52.018;21.036;2022-07-29T09:57:36;100830.52;;;24.79;53.59
35507;BME280;36461;52.018;21.036;2022-07-29T10:00:10;100826.11;;;24.90;52.66
35507;BME280;36461;52.018;21.036;2022-07-29T10:02:40;100819.52;;;25.00;53.37
35507;BME280;36461;52.018;21.036;2022-07-29T10:05:21;100823.97;;;25.15;52.83
35507;BME280;36461;52.018;21.036;2022-07-29T10:07:56;100824.72;;;25.42;52.71
35507;BME280;36461;52.018;21.036;2022-07-29T10:10:34;100823.95;;;25.71;51.90
35507;BME280;36461;52.018;21.036;2022-07-29T10:13:09;100816.84;;;26.01;51.08
35507;BME280;36461;52.018;21.036;2022-07-29T10:15:41;100816.45;;;26.15;50.31
35507;BME280;36461;52.018;21.036;2022-07-29T10:18:12;100814.05;;;26.32;50.70
35507;BME280;36461;52.018;21.036;2022-07-29T10:20:41;100807.80;;;26.56;49.72
35507;BME280;36461;52.018;21.036;2022-07-29T10:23:09;100806.87;;;26.71;48.87
35507;BME280;36461;52.018;21.036;2022-07-29T10:25:38;100796.23;;;26.85;47.95
35507;BME280;36461;52.018;21.036;2022-07-29T10:28:05;100791.41;;;26.99;47.62
35507;BME280;36461;52.018;21.036;2022-07-29T10:30:32;100795.46;;;27.03;46.87
35507;BME280;36461;52.018;21.036;2022-07-29T10:36:02;100790.20;;;27.21;47.47
35507;BME280;36461;52.018;21.036;2022-07-29T10:44:17;100799.86;;;27.08;44.68
35507;BME280;36461;52.018;21.036;2022-07-29T10:46:45;100790.39;;;26.95;44.45
35507;BME280;36461;52.018;21.036;2022-07-29T10:49:15;100795.98;;;26.78;45.45
35507;BME280;36461;52.018;21.036;2022-07-29T11:02:51;100780.30;;;26.89;44.27
35507;BME280;36461;52.018;21.036;2022-07-29T11:05:20;100769.48;;;27.01;44.36
35507;BME280;36461;52.018;21.036;2022-07-29T11:10:45;100778.50;;;27.32;43.37
35507;BME280;36461;52.018;21.036;2022-07-29T11:13:12;100768.81;;;27.58;43.07
35507;BME280;36461;52.018;21.036;2022-07-29T11:15:56;100772.45;;;27.75;43.17
35507;BME280;36461;52.018;21.036;2022-07-29T11:18:23;100775.27;;;27.92;42.76
35507;BME280;36461;52.018;21.036;2022-07-29T11:20:51;100769.80;;;27.93;41.82
35507;BME280;36461;52.018;21.036;2022-07-29T11:23:23;100774.21;;;27.85;40.99
35507;BME280;36461;52.018;21.036;2022-07-29T11:28:57;100772.53;;;27.84;41.14
35507;BME280;36461;52.018;21.036;2022-07-29T11:31:45;100774.56;;;28.04;41.67
35507;BME280;36461;52.018;21.036;2022-07-29T11:34:30;100767.80;;;28.09;40.44
35507;BME280;36461;52.018;21.036;2022-07-29T11:47:34;100755.95;;;28.34;40.06
35507;BME280;36461;52.018;21.036;2022-07-29T11:50:04;100752.51;;;28.20;39.13
35507;BME280;36461;52.018;21.036;2022-07-29T11:55:06;100758.97;;;27.77;39.49
35507;BME280;36461;52.018;21.036;2022-07-29T11:57:34;100755.63;;;27.75;40.14
35507;BME280;36461;52.018;21.036;2022-07-29T12:00:04;100752.34;;;27.63;39.66
35507;BME280;36461;52.018;21.036;2022-07-29T12:02:41;100763.80;;;27.41;40.89
35507;BME280;36461;52.018;21.036;2022-07-29T12:05:09;100757.45;;;27.28;40.94
35507;BME280;36461;52.018;21.036;2022-07-29T12:07:37;100758.80;;;27.15;40.26
35507;BME280;36461;52.018;21.036;2022-07-29T12:10:06;100756.19;;;27.19;40.32
35507;BME280;36461;52.018;21.036;2022-07-29T12:12:34;100753.13;;;27.27;40.80
35507;BME280;36461;52.018;21.036;2022-07-29T12:15:15;100743.88;;;27.22;40.07
35507;BME280;36461;52.018;21.036;2022-07-29T12:17:46;100744.78;;;27.12;39.73
35507;BME280;36461;52.018;21.036;2022-07-29T12:20:14;100751.02;;;27.17;39.94
35507;BME280;36461;52.018;21.036;2022-07-29T12:22:52;100755.18;;;27.34;40.13
35507;BME280;36461;52.018;21.036;2022-07-29T12:25:25;100741.06;;;27.51;39.76
35507;BME280;36461;52.018;21.036;2022-07-29T12:28:02;100743.38;;;27.50;39.33
35507;BME280;36461;52.018;21.036;2022-07-29T12:30:38;100741.72;;;27.49;39.90
35507;BME280;36461;52.018;21.036;2022-07-29T12:33:16;100739.38;;;27.50;40.27
35507;BME280;36461;52.018;21.036;2022-07-29T12:35:47;100740.71;;;27.50;40.51
35507;BME280;36461;52.018;21.036;2022-07-29T12:38:22;100735.61;;;27.39;40.06
35507;BME280;36461;52.018;21.036;2022-07-29T12:40:49;100741.81;;;27.29;40.67
35507;BME280;36461;52.018;21.036;2022-07-29T12:43:20;100736.05;;;27.20;41.29
35507;BME280;36461;52.018;21.036;2022-07-29T12:45:53;100731.13;;;27.11;41.01
35507;BME280;36461;52.018;21.036;2022-07-29T12:48:38;100728.34;;;27.03;40.56
35507;BME280;36461;52.018;21.036;2022-07-29T12:51:07;100728.75;;;27.08;40.77
35507;BME280;36461;52.018;21.036;2022-07-29T12:53:36;100728.55;;;27.06;40.94
35507;BME280;36461;52.018;21.036;2022-07-29T12:56:04;100726.30;;;26.97;40.41
35507;BME280;36461;52.018;21.036;2022-07-29T12:58:38;100725.98;;;27.00;40.79
35507;BME280;36461;52.018;21.036;2022-07-29T13:01:13;100725.10;;;27.09;41.22
35507;BME280;36461;52.018;21.036;2022-07-29T13:03:54;100712.82;;;26.99;39.71
35507;BME280;36461;52.018;21.036;2022-07-29T13:06:42;100712.71;;;27.04;40.75
35507;BME280;36461;52.018;21.036;2022-07-29T13:09:15;100713.66;;;27.13;40.43
35507;BME280;36461;52.018;21.036;2022-07-29T13:11:49;100707.52;;;27.17;39.64
35507;BME280;36461;52.018;21.036;2022-07-29T13:14:32;100710.33;;;27.15;39.21
35507;BME280;36461;52.018;21.036;2022-07-29T13:17:09;100714.13;;;27.12;39.14
35507;BME280;36461;52.018;21.036;2022-07-29T13:19:44;100710.06;;;26.90;39.33
35507;BME280;36461;52.018;21.036;2022-07-29T13:22:14;100717.43;;;26.69;40.35
35507;BME280;36461;52.018;21.036;2022-07-29T13:24:50;100709.86;;;26.50;39.81
35507;BME280;36461;52.018;21.036;2022-07-29T13:27:28;100711.89;;;26.28;39.61
35507;BME280;36461;52.018;21.036;2022-07-29T13:29:52;100709.17;;;26.24;39.85
35507;BME280;36461;52.018;21.036;2022-07-29T13:32:22;100708.19;;;26.25;39.93
35507;BME280;36461;52.018;21.036;2022-07-29T13:34:49;100712.66;;;26.25;39.99
35507;BME280;36461;52.018;21.036;2022-07-29T13:37:15;100700.27;;;26.20;40.07
35507;BME280;36461;52.018;21.036;2022-07-29T13:39:44;100698.05;;;26.15;39.58
35507;BME280;36461;52.018;21.036;2022-07-29T13:42:11;100704.80;;;26.09;39.62
35507;BME280;36461;52.018;21.036;2022-07-29T13:44:41;100694.69;;;26.13;39.94
35507;BME280;36461;52.018;21.036;2022-07-29T13:47:08;100704.14;;;26.11;40.25
35507;BME280;36461;52.018;21.036;2022-07-29T13:49:35;100699.11;;;25.99;40.52
35507;BME280;36461;52.018;21.036;2022-07-29T13:52:03;100696.12;;;25.88;41.26